createdAt,value
2017-05-31T00:02:22.341Z,19.80
2017-05-31T00:04:49.879Z,19.90
2017-05-31T00:07:17.412Z,20.00
2017-05-31T00:09:45.012Z,20.10
2017-05-31T00:12:12.547Z,20.20
2017-05-31T00:14:40.096Z,20.40
2017-05-31T00:17:07.664Z,20.40
2017-05-31T00:19:35.203Z,20.40
2017-05-31T00:22:02.744Z,20.40
2017-05-31T00:24:30.307Z,20.30
2017-05-31T00:26:57.852Z,20.20
2017-05-31T00:29:25.387Z,20.20
2017-05-31T00:31:52.957Z,20.20
2017-05-31T00:34:20.499Z,20.20
2017-05-31T00:36:48.040Z,20.10
2017-05-31T00:39:15.612Z,20.10
2017-05-31T00:41:43.172Z,20.00
2017-05-31T00:44:10.710Z,20.10
2017-05-31T00:46:38.279Z,20.10
2017-05-31T00:49:05.823Z,20.20
2017-05-31T00:51:33.368Z,20.20
2017-05-31T00:54:00.932Z,20.10
2017-05-31T00:56:28.476Z,20.00
2017-05-31T00:58:56.020Z,20.00
2017-05-31T01:01:23.594Z,19.90
2017-05-31T01:03:51.136Z,20.00
2017-05-31T01:06:18.699Z,20.00
2017-05-31T01:08:46.268Z,20.00
2017-05-31T01:11:14.212Z,19.80
2017-05-31T01:13:41.771Z,19.90
2017-05-31T01:16:09.331Z,19.90
2017-05-31T01:18:36.866Z,19.80
2017-05-31T01:21:04.420Z,19.80
2017-05-31T01:23:31.978Z,19.80
2017-05-31T01:25:59.538Z,19.80
2017-05-31T01:28:27.067Z,19.80
2017-05-31T01:30:54.627Z,19.70
2017-05-31T01:33:22.175Z,19.60
2017-05-31T01:35:49.728Z,19.70
2017-05-31T01:38:17.292Z,19.70
2017-05-31T01:40:44.831Z,19.60
2017-05-31T01:43:12.379Z,19.50
2017-05-31T01:45:39.946Z,19.60
2017-05-31T01:48:07.491Z,19.60
2017-05-31T01:50:35.035Z,19.50
2017-05-31T01:53:02.599Z,19.40
2017-05-31T01:55:30.138Z,19.40
2017-05-31T01:57:57.676Z,19.50
2017-05-31T02:00:25.248Z,19.40
2017-05-31T02:02:52.791Z,19.20
2017-05-31T02:05:20.332Z,19.20
2017-05-31T02:07:47.890Z,19.10
2017-05-31T02:10:15.441Z,19.10
2017-05-31T02:12:42.984Z,19.00
2017-05-31T02:15:10.560Z,19.00
2017-05-31T02:17:38.108Z,19.20
2017-05-31T02:20:05.652Z,19.40
2017-05-31T02:22:33.220Z,19.30
2017-05-31T02:25:00.759Z,19.30
2017-05-31T02:27:28.295Z,19.20
2017-05-31T02:29:56.260Z,19.10
2017-05-31T02:32:23.795Z,19.10
2017-05-31T02:34:51.339Z,19.20
2017-05-31T02:37:18.908Z,19.20
2017-05-31T02:39:46.454Z,19.20
2017-05-31T02:42:14.000Z,19.00
2017-05-31T02:44:41.574Z,18.90
2017-05-31T02:47:09.116Z,18.80
2017-05-31T02:49:36.655Z,18.70
2017-05-31T02:52:04.924Z,18.70
2017-05-31T02:54:32.470Z,18.80
2017-05-31T02:57:00.015Z,18.70
2017-05-31T02:59:27.580Z,18.60
2017-05-31T03:01:55.123Z,18.60
2017-05-31T03:04:22.673Z,18.70
2017-05-31T03:06:50.299Z,18.70
2017-05-31T03:09:17.800Z,18.50
2017-05-31T03:11:45.335Z,18.40
2017-05-31T03:14:12.899Z,18.40
2017-05-31T03:16:40.443Z,18.30
2017-05-31T03:19:07.992Z,18.30
2017-05-31T03:21:35.561Z,18.30
2017-05-31T03:24:03.107Z,18.30
2017-05-31T03:26:30.651Z,18.20
2017-05-31T03:28:58.215Z,18.20
2017-05-31T03:31:25.760Z,18.20
2017-05-31T03:33:53.309Z,18.20
2017-05-31T03:36:20.885Z,18.30
2017-05-31T03:38:48.433Z,18.20
2017-05-31T03:41:15.975Z,18.30
2017-05-31T03:43:43.545Z,18.20
2017-05-31T03:46:11.088Z,18.30
2017-05-31T03:48:38.636Z,18.40
2017-05-31T03:51:06.204Z,18.40
2017-05-31T03:53:33.753Z,18.50
2017-05-31T03:56:01.309Z,18.50
2017-05-31T03:58:28.880Z,18.50
2017-05-31T04:00:56.428Z,18.60
2017-05-31T04:03:23.981Z,18.60
2017-05-31T04:05:51.552Z,18.70
2017-05-31T04:08:19.092Z,18.70
2017-05-31T04:10:46.635Z,18.70
2017-05-31T04:13:14.207Z,18.80
2017-05-31T04:15:41.756Z,18.70
2017-05-31T04:18:09.291Z,18.90
2017-05-31T04:20:36.857Z,18.90
2017-05-31T04:23:04.414Z,18.90
2017-05-31T04:25:31.944Z,18.90
2017-05-31T04:27:59.512Z,18.80
2017-05-31T04:30:27.082Z,18.90
2017-05-31T04:32:54.616Z,18.90
2017-05-31T04:35:22.184Z,18.90
2017-05-31T04:37:49.719Z,19.00
2017-05-31T04:40:17.267Z,19.10
2017-05-31T04:42:44.836Z,19.10
2017-05-31T04:45:12.384Z,19.10
2017-05-31T04:47:39.924Z,19.10
2017-05-31T04:50:07.495Z,19.00
2017-05-31T04:52:35.036Z,19.10
2017-05-31T04:55:02.597Z,19.10
2017-05-31T04:57:30.152Z,19.20
2017-05-31T04:59:57.691Z,19.30
2017-05-31T05:02:25.231Z,19.30
2017-05-31T05:04:53.174Z,19.30
2017-05-31T05:07:20.707Z,19.30
2017-05-31T05:09:48.257Z,19.30
2017-05-31T05:12:15.828Z,19.30
2017-05-31T05:14:43.368Z,19.40
2017-05-31T05:17:10.936Z,19.30
2017-05-31T05:19:38.504Z,19.50
2017-05-31T05:22:06.049Z,19.50
2017-05-31T05:24:33.588Z,19.60
2017-05-31T05:27:01.157Z,19.70
2017-05-31T05:29:28.696Z,19.70
2017-05-31T05:31:56.245Z,19.80
2017-05-31T05:34:23.812Z,19.80
2017-05-31T05:36:51.358Z,19.80
2017-05-31T05:39:18.905Z,19.70
2017-05-31T05:41:46.467Z,19.70
2017-05-31T05:44:14.016Z,19.80
2017-05-31T05:46:41.561Z,19.80
2017-05-31T05:49:09.136Z,19.80
2017-05-31T05:51:36.685Z,19.80
2017-05-31T05:54:04.233Z,19.80
2017-05-31T05:56:31.800Z,19.90
2017-05-31T05:58:59.361Z,19.80
2017-05-31T06:01:26.912Z,19.70
2017-05-31T06:03:54.475Z,19.80
2017-05-31T06:06:21.975Z,19.90
2017-05-31T06:08:49.556Z,20.00
2017-05-31T06:11:17.129Z,20.00
2017-05-31T06:13:44.672Z,20.10
2017-05-31T06:16:12.215Z,20.20
2017-05-31T06:22:18.513Z,20.30
2017-05-31T06:26:49.677Z,20.20
2017-05-31T06:29:17.255Z,20.20
2017-05-31T06:31:44.813Z,20.10
2017-05-31T06:34:12.376Z,20.20
2017-05-31T06:36:39.988Z,20.20
2017-05-31T06:39:07.544Z,20.40
2017-05-31T06:41:35.116Z,20.50
2017-05-31T06:44:02.701Z,20.60
2017-05-31T06:46:30.251Z,20.70
2017-05-31T06:48:57.807Z,20.70
2017-05-31T06:51:25.384Z,20.60
2017-05-31T06:53:52.959Z,20.50
2017-05-31T06:56:20.523Z,20.60
2017-05-31T06:58:48.100Z,20.80
2017-05-31T07:01:15.665Z,20.90
2017-05-31T07:03:43.220Z,20.90
2017-05-31T07:06:10.796Z,21.00
2017-05-31T07:08:38.351Z,21.00
2017-05-31T07:11:05.908Z,21.00
2017-05-31T07:13:33.487Z,20.80
2017-05-31T07:16:01.489Z,20.80
2017-05-31T07:18:29.039Z,20.80
2017-05-31T07:20:56.595Z,20.90
2017-05-31T07:23:24.187Z,20.90
2017-05-31T07:25:51.744Z,20.80
2017-05-31T07:28:19.304Z,21.00
2017-05-31T07:30:46.880Z,21.00
2017-05-31T07:33:14.465Z,21.20
2017-05-31T07:35:42.036Z,21.10
2017-05-31T07:38:09.644Z,21.20
2017-05-31T07:40:37.215Z,20.90
2017-05-31T07:43:04.796Z,20.80
2017-05-31T07:45:32.372Z,20.60
2017-05-31T07:47:59.944Z,20.70
2017-05-31T07:50:27.554Z,21.10
2017-05-31T07:52:55.128Z,21.30
2017-05-31T07:55:23.133Z,21.40
2017-05-31T07:57:50.699Z,21.20
2017-05-31T08:00:18.248Z,21.00
2017-05-31T08:02:45.832Z,21.30
2017-05-31T08:05:13.788Z,21.30
2017-05-31T08:07:41.364Z,21.30
2017-05-31T08:10:08.957Z,21.50
2017-05-31T08:12:36.468Z,21.60
2017-05-31T08:15:04.068Z,21.40
2017-05-31T08:17:31.652Z,21.50
2017-05-31T08:19:59.208Z,21.60
2017-05-31T08:22:26.768Z,21.70
2017-05-31T08:24:54.356Z,21.80
2017-05-31T08:27:21.932Z,21.70
2017-05-31T08:29:49.496Z,21.60
2017-05-31T08:32:17.075Z,21.60
2017-05-31T08:34:44.631Z,21.80
2017-05-31T08:37:12.188Z,21.90
2017-05-31T08:39:39.778Z,21.90
2017-05-31T08:42:07.349Z,21.70
2017-05-31T08:44:34.903Z,21.60
2017-05-31T08:47:02.484Z,21.60
2017-05-31T08:49:30.061Z,21.70
2017-05-31T08:51:57.645Z,21.70
2017-05-31T08:54:25.204Z,21.80
2017-05-31T08:56:52.759Z,21.70
2017-05-31T08:59:20.339Z,21.80
2017-05-31T09:01:47.912Z,21.80
2017-05-31T09:04:15.604Z,21.80
2017-05-31T09:06:43.212Z,22.10
2017-05-31T09:09:10.769Z,22.30
2017-05-31T09:11:38.324Z,22.40
2017-05-31T09:14:05.903Z,22.40
2017-05-31T09:16:33.464Z,22.20
2017-05-31T09:19:01.029Z,22.20
2017-05-31T09:21:28.612Z,22.40
2017-05-31T09:23:56.168Z,22.50
2017-05-31T09:26:24.124Z,22.70
2017-05-31T09:28:51.716Z,22.70
2017-05-31T09:31:19.277Z,22.80
2017-05-31T09:33:46.831Z,22.90
2017-05-31T09:36:14.819Z,22.70
2017-05-31T09:38:42.392Z,22.70
2017-05-31T09:41:09.966Z,22.80
2017-05-31T09:43:37.540Z,22.80
2017-05-31T09:46:05.101Z,22.80
2017-05-31T09:48:32.659Z,23.10
2017-05-31T09:51:00.248Z,23.10
2017-05-31T09:53:27.816Z,23.10
2017-05-31T09:55:55.377Z,23.00
2017-05-31T09:58:22.963Z,23.20
2017-05-31T10:00:50.512Z,23.40
2017-05-31T10:03:18.067Z,23.60
2017-05-31T10:05:46.054Z,23.90
2017-05-31T10:08:13.607Z,23.80
2017-05-31T10:10:41.169Z,23.60
2017-05-31T10:13:08.748Z,23.50
2017-05-31T10:15:36.304Z,23.70
2017-05-31T10:18:03.859Z,23.50
2017-05-31T10:20:31.453Z,23.40
2017-05-31T10:22:59.004Z,23.80
2017-05-31T10:25:26.564Z,24.00
2017-05-31T10:27:54.143Z,24.10
2017-05-31T10:30:21.705Z,23.90
2017-05-31T10:32:49.257Z,23.80
2017-05-31T10:35:16.840Z,23.90
2017-05-31T10:37:44.393Z,24.20
2017-05-31T10:40:11.946Z,24.10
2017-05-31T10:42:39.531Z,24.10
2017-05-31T10:45:07.088Z,24.00
2017-05-31T10:47:34.648Z,23.90
2017-05-31T10:50:02.241Z,24.10
2017-05-31T10:52:30.196Z,24.20
2017-05-31T10:54:57.752Z,24.20
2017-05-31T10:57:25.409Z,24.20
2017-05-31T10:59:52.964Z,24.50
2017-05-31T11:02:20.515Z,24.70
2017-05-31T11:04:48.097Z,24.40
2017-05-31T11:07:15.659Z,24.40
2017-05-31T11:09:43.211Z,24.30
2017-05-31T11:12:10.801Z,24.50
2017-05-31T11:14:38.369Z,24.20
2017-05-31T11:17:05.928Z,24.20
2017-05-31T11:19:33.913Z,24.70
2017-05-31T11:22:01.469Z,24.70
2017-05-31T11:24:29.023Z,25.30
2017-05-31T11:26:56.680Z,25.30
2017-05-31T11:29:24.631Z,24.70
2017-05-31T11:31:52.184Z,24.70
2017-05-31T11:34:19.777Z,24.40
2017-05-31T11:36:47.342Z,24.10
2017-05-31T11:39:14.922Z,24.30
2017-05-31T11:41:42.519Z,24.30
2017-05-31T11:44:10.076Z,24.00
2017-05-31T11:46:37.640Z,24.00
2017-05-31T11:49:05.261Z,24.20
2017-05-31T11:51:32.797Z,24.60
2017-05-31T11:54:00.385Z,24.40
2017-05-31T11:56:27.960Z,24.40
2017-05-31T11:58:55.516Z,24.40
2017-05-31T12:01:23.099Z,24.50
2017-05-31T12:03:50.716Z,24.50
2017-05-31T12:06:18.271Z,24.80
2017-05-31T12:08:45.860Z,25.10
2017-05-31T12:11:13.433Z,25.00
2017-05-31T12:13:40.989Z,24.90
2017-05-31T12:16:08.567Z,24.80
2017-05-31T12:18:36.123Z,25.00
2017-05-31T12:21:03.679Z,25.20
2017-05-31T12:27:07.244Z,25.10
2017-05-31T12:29:34.793Z,24.70
2017-05-31T12:32:02.335Z,25.00
2017-05-31T12:34:29.902Z,25.10
2017-05-31T12:36:57.446Z,25.10
2017-05-31T12:39:24.984Z,25.10
2017-05-31T12:41:52.564Z,25.30
2017-05-31T12:44:20.109Z,25.40
2017-05-31T12:46:47.656Z,25.40
2017-05-31T12:49:15.620Z,25.10
2017-05-31T12:51:43.168Z,25.10
2017-05-31T12:54:10.703Z,25.10
2017-05-31T12:56:38.272Z,25.30
2017-05-31T12:59:05.813Z,25.60
2017-05-31T13:01:33.352Z,25.70
2017-05-31T13:04:00.925Z,25.70
2017-05-31T13:06:28.460Z,25.60
2017-05-31T13:08:56.004Z,25.40
2017-05-31T13:11:23.975Z,25.60
2017-05-31T13:13:51.517Z,25.60
2017-05-31T13:16:19.056Z,25.80
2017-05-31T13:18:46.628Z,25.80
2017-05-31T13:21:14.168Z,25.50
2017-05-31T13:23:41.703Z,25.70
2017-05-31T13:26:09.625Z,25.70
2017-05-31T13:28:37.176Z,25.70
2017-05-31T13:31:04.723Z,25.70
2017-05-31T13:33:32.283Z,26.10
2017-05-31T13:35:59.829Z,25.60
2017-05-31T13:38:27.372Z,25.70
2017-05-31T13:40:54.936Z,25.70
2017-05-31T13:43:22.576Z,25.70
2017-05-31T13:45:50.116Z,25.50
2017-05-31T13:48:17.671Z,25.60
2017-05-31T13:50:45.213Z,25.60
2017-05-31T13:53:12.753Z,25.80
2017-05-31T13:55:40.311Z,25.70
2017-05-31T13:58:07.848Z,25.50
2017-05-31T14:00:35.391Z,25.70
2017-05-31T14:03:03.348Z,25.80
2017-05-31T14:05:30.901Z,25.80
2017-05-31T14:07:58.440Z,25.60
2017-05-31T14:10:26.002Z,25.70
2017-05-31T14:12:53.548Z,25.60
2017-05-31T14:15:21.083Z,25.50
2017-05-31T14:17:48.652Z,25.20
2017-05-31T14:20:16.200Z,25.10
2017-05-31T14:22:44.140Z,25.90
2017-05-31T14:25:11.714Z,25.90
2017-05-31T14:27:39.249Z,25.80
2017-05-31T14:30:06.789Z,25.70
2017-05-31T14:32:34.352Z,26.00
2017-05-31T14:35:01.885Z,26.00
2017-05-31T14:37:29.428Z,26.00
2017-05-31T14:39:56.991Z,26.00
2017-05-31T14:42:24.611Z,26.00
2017-05-31T14:44:52.146Z,26.00
2017-05-31T14:47:19.728Z,26.00
2017-05-31T14:49:47.256Z,25.40
2017-05-31T14:52:14.791Z,25.50
2017-05-31T14:54:42.760Z,25.80
2017-05-31T14:57:10.692Z,25.70
2017-05-31T14:59:38.236Z,25.70
2017-05-31T15:02:05.804Z,25.90
2017-05-31T15:04:33.332Z,26.10
2017-05-31T15:07:00.877Z,26.10
2017-05-31T15:09:28.837Z,26.40
2017-05-31T15:11:56.380Z,26.40
2017-05-31T15:14:24.401Z,26.20
2017-05-31T15:16:51.940Z,26.10
2017-05-31T15:19:19.872Z,26.30
2017-05-31T15:21:47.432Z,26.30
2017-05-31T15:24:14.964Z,25.80
2017-05-31T15:26:42.497Z,25.60
2017-05-31T15:29:10.447Z,26.00
2017-05-31T15:31:37.946Z,26.00
2017-05-31T15:34:05.516Z,26.10
2017-05-31T15:36:33.075Z,26.00
2017-05-31T15:39:00.613Z,25.70
2017-05-31T15:41:28.156Z,25.80
2017-05-31T15:43:56.115Z,26.20
2017-05-31T15:46:23.663Z,26.20
2017-05-31T15:48:51.219Z,26.70
2017-05-31T15:51:18.791Z,26.70
2017-05-31T15:53:46.335Z,26.80
2017-05-31T15:56:13.877Z,26.50
2017-05-31T15:58:41.436Z,26.20
2017-05-31T16:01:08.981Z,26.30
2017-05-31T16:03:36.520Z,26.60
2017-05-31T16:06:04.482Z,27.00
2017-05-31T16:08:32.020Z,27.00
2017-05-31T16:10:59.560Z,27.00
2017-05-31T16:13:27.121Z,27.20
2017-05-31T16:15:54.651Z,27.40
2017-05-31T16:18:22.196Z,27.60
2017-05-31T16:20:50.156Z,26.80
2017-05-31T16:23:18.090Z,26.60
2017-05-31T16:25:45.633Z,26.60
2017-05-31T16:28:13.202Z,26.90
2017-05-31T16:30:40.748Z,27.10
2017-05-31T16:33:08.282Z,27.30
2017-05-31T16:35:35.840Z,27.30
2017-05-31T16:38:03.776Z,28.40
2017-05-31T16:40:31.318Z,28.40
2017-05-31T16:42:58.880Z,27.50
2017-05-31T16:45:26.416Z,27.40
2017-05-31T16:47:53.952Z,27.20
2017-05-31T16:50:21.520Z,27.20
2017-05-31T16:52:49.457Z,27.60
2017-05-31T16:55:16.988Z,27.60
2017-05-31T16:57:44.560Z,28.10
2017-05-31T17:00:12.093Z,27.30
2017-05-31T17:02:39.634Z,26.60
2017-05-31T17:05:07.592Z,25.80
2017-05-31T17:07:35.137Z,25.80
2017-05-31T17:10:02.684Z,25.60
2017-05-31T17:12:30.248Z,25.50
2017-05-31T17:14:57.793Z,25.20
2017-05-31T17:17:25.338Z,25.10
2017-05-31T17:19:52.914Z,24.90
2017-05-31T17:22:20.457Z,24.80
2017-05-31T17:24:48.028Z,24.70
2017-05-31T17:27:15.588Z,24.60
2017-05-31T17:29:43.181Z,24.60
2017-05-31T17:32:10.749Z,24.60
2017-05-31T17:34:38.295Z,24.60
2017-05-31T17:37:05.868Z,24.50
2017-05-31T17:39:33.480Z,24.60
2017-05-31T17:42:01.081Z,24.60
2017-05-31T17:44:28.768Z,24.60
2017-05-31T17:46:56.990Z,24.50
2017-05-31T17:49:24.714Z,24.50
2017-05-31T17:51:52.716Z,24.30
2017-05-31T17:54:20.421Z,24.30
2017-05-31T17:56:48.335Z,24.20
2017-05-31T17:59:16.191Z,24.20
2017-05-31T18:01:43.949Z,24.20
2017-05-31T18:04:12.391Z,24.20
2017-05-31T18:06:40.315Z,24.20
2017-05-31T18:09:08.538Z,24.20
2017-05-31T18:11:37.099Z,23.90
2017-05-31T18:14:05.920Z,23.90
2017-05-31T18:16:34.159Z,23.90
2017-05-31T18:19:02.260Z,23.90
2017-05-31T18:21:30.886Z,23.90
2017-05-31T18:23:59.401Z,23.90
2017-05-31T18:26:28.027Z,23.90
2017-05-31T18:28:56.703Z,23.70
2017-05-31T18:31:25.399Z,23.70
2017-05-31T18:33:53.969Z,23.80
2017-05-31T18:36:22.640Z,23.70
2017-05-31T18:38:51.165Z,23.60
2017-05-31T18:41:19.698Z,23.60
2017-05-31T18:43:48.750Z,23.50
2017-05-31T18:46:17.318Z,23.50
2017-05-31T18:48:45.909Z,23.40
2017-05-31T18:51:14.599Z,23.30
2017-05-31T18:53:43.131Z,23.10
2017-05-31T18:56:12.102Z,22.90
2017-05-31T18:58:41.074Z,22.90
2017-05-31T19:01:09.661Z,22.80
2017-05-31T19:03:38.237Z,22.80
2017-05-31T19:06:06.903Z,22.70
2017-05-31T19:08:35.450Z,22.60
2017-05-31T19:11:04.008Z,22.60
2017-05-31T19:13:32.699Z,22.50
2017-05-31T19:16:01.284Z,22.50
2017-05-31T19:18:29.882Z,22.50
2017-05-31T19:20:58.592Z,22.40
2017-05-31T19:23:27.540Z,22.30
2017-05-31T19:25:56.087Z,22.30
2017-05-31T19:28:24.843Z,22.20
2017-05-31T19:30:53.410Z,22.20
2017-05-31T19:33:21.974Z,22.10
2017-05-31T19:35:50.629Z,22.10
2017-05-31T19:38:19.502Z,22.10
2017-05-31T19:40:48.025Z,22.10
2017-05-31T19:43:16.709Z,22.00
2017-05-31T19:45:45.241Z,22.00
2017-05-31T19:48:13.813Z,21.90
2017-05-31T19:50:42.651Z,21.80
2017-05-31T19:53:11.628Z,21.80
2017-05-31T19:55:40.542Z,21.70
2017-05-31T19:58:09.227Z,21.80
2017-05-31T20:00:38.569Z,21.70
2017-05-31T20:03:07.157Z,21.70
2017-05-31T20:05:35.875Z,21.60
2017-05-31T20:08:04.405Z,21.60
2017-05-31T20:10:33.958Z,21.50
2017-05-31T20:13:02.606Z,21.50
2017-05-31T20:15:31.161Z,21.50
2017-05-31T20:18:00.118Z,21.40
2017-05-31T20:20:29.580Z,21.40
2017-05-31T20:22:58.173Z,21.30
2017-05-31T20:25:26.751Z,21.30
2017-05-31T20:27:55.525Z,21.20
2017-05-31T20:30:24.490Z,21.20
2017-05-31T20:32:53.071Z,21.20
2017-05-31T20:35:21.821Z,21.20
2017-05-31T20:37:50.372Z,21.10
2017-05-31T20:40:19.323Z,21.10
2017-05-31T20:42:47.994Z,21.10
2017-05-31T20:45:22.101Z,21.10
2017-05-31T20:47:50.767Z,21.10
2017-05-31T20:50:19.312Z,21.10
2017-05-31T20:52:47.868Z,21.10
2017-05-31T20:55:16.548Z,21.00
2017-05-31T20:57:45.402Z,21.00
2017-05-31T21:00:13.938Z,21.00
2017-05-31T21:02:42.573Z,20.90
2017-05-31T21:05:11.022Z,20.80
2017-05-31T21:07:39.220Z,20.90
2017-05-31T21:10:07.015Z,20.80
2017-05-31T21:12:34.846Z,20.80
2017-05-31T21:15:02.512Z,20.70
2017-05-31T21:17:30.089Z,20.70
2017-05-31T21:19:57.687Z,20.70
2017-05-31T21:22:25.212Z,20.70
2017-05-31T21:24:52.780Z,20.70
2017-05-31T21:27:20.364Z,20.60
2017-05-31T21:29:47.939Z,20.50
2017-05-31T21:32:15.521Z,20.60
2017-05-31T21:34:43.497Z,20.70
2017-05-31T21:37:11.071Z,20.70
2017-05-31T21:39:38.636Z,20.50
2017-05-31T21:42:06.205Z,20.40
2017-05-31T21:44:33.747Z,20.20
2017-05-31T21:47:01.705Z,20.10
2017-05-31T21:49:29.640Z,20.30
2017-05-31T21:51:57.181Z,20.30
2017-05-31T21:54:24.747Z,20.30
2017-05-31T21:56:52.296Z,20.30
2017-05-31T21:59:19.840Z,20.30
2017-05-31T22:01:47.412Z,20.30
2017-05-31T22:04:14.967Z,20.30
2017-05-31T22:06:42.508Z,20.30
2017-05-31T22:09:10.491Z,19.80
2017-05-31T22:11:38.060Z,19.90
2017-05-31T22:14:05.605Z,19.90
2017-05-31T22:16:33.548Z,19.70
2017-05-31T22:19:01.214Z,19.70
2017-05-31T22:21:28.701Z,19.60
2017-05-31T22:23:56.253Z,19.60
2017-05-31T22:26:24.510Z,19.50
2017-05-31T22:28:52.072Z,19.50
2017-05-31T22:31:19.621Z,19.40
2017-05-31T22:33:47.235Z,19.40
2017-05-31T22:36:15.155Z,19.40
2017-05-31T22:38:42.699Z,19.40
2017-05-31T22:41:10.784Z,19.40
2017-05-31T22:43:38.772Z,19.30
2017-05-31T22:46:06.320Z,19.30
2017-05-31T22:48:34.906Z,19.30
2017-05-31T22:51:02.889Z,19.10
2017-05-31T22:53:30.785Z,19.10
2017-05-31T22:55:58.552Z,19.10
2017-05-31T22:58:26.095Z,19.00
2017-05-31T23:00:53.639Z,19.00
2017-05-31T23:03:21.226Z,19.10
2017-05-31T23:05:48.785Z,19.10
2017-05-31T23:08:16.723Z,19.30
2017-05-31T23:10:44.311Z,19.40
2017-05-31T23:13:12.249Z,19.20
2017-05-31T23:15:39.795Z,19.20
2017-05-31T23:18:07.363Z,19.10
2017-05-31T23:20:34.944Z,19.20
2017-05-31T23:23:02.481Z,19.10
2017-05-31T23:25:30.053Z,19.20
2017-05-31T23:27:57.602Z,19.20
2017-05-31T23:30:25.148Z,19.20
2017-05-31T23:32:52.717Z,19.30
2017-05-31T23:35:20.264Z,19.30
2017-05-31T23:37:47.803Z,19.30
2017-05-31T23:40:15.376Z,19.40
2017-05-31T23:42:42.924Z,19.20
2017-05-31T23:45:10.471Z,19.10
2017-05-31T23:47:38.441Z,19.00
2017-05-31T23:50:06.381Z,19.00
2017-05-31T23:52:33.921Z,19.00
2017-05-31T23:55:01.493Z,18.90
2017-05-31T23:57:29.036Z,19.00
2017-05-31T23:59:56.580Z,18.80
